createdAt,value
2022-11-06T00:01:15.352Z,0
2022-11-06T00:03:16.471Z,0
2022-11-06T00:05:17.979Z,0
2022-11-06T00:07:19.057Z,0
2022-11-06T00:09:20.932Z,0
2022-11-06T00:11:22.416Z,0
2022-11-06T00:13:23.819Z,0
2022-11-06T00:15:25.079Z,0
2022-11-06T00:17:27.023Z,0
2022-11-06T00:19:28.406Z,0
2022-11-06T00:21:30.238Z,0
2022-11-06T00:23:31.650Z,0
2022-11-06T00:25:33.550Z,0
2022-11-06T00:27:35.393Z,0
2022-11-06T00:29:37.025Z,0
2022-11-06T00:31:38.895Z,0
2022-11-06T00:33:40.384Z,0
2022-11-06T00:35:41.832Z,0
2022-11-06T00:37:43.754Z,0
2022-11-06T00:39:45.059Z,0
2022-11-06T00:41:46.519Z,0
2022-11-06T00:43:47.620Z,0
2022-11-06T00:45:49.057Z,0
2022-11-06T00:47:50.385Z,0
2022-11-06T00:49:51.929Z,0
2022-11-06T00:51:53.168Z,0
2022-11-06T00:53:54.378Z,0
2022-11-06T00:55:56.255Z,1.263
2022-11-06T00:57:57.265Z,0.421
2022-11-06T00:59:58.872Z,0
2022-11-06T01:02:00.780Z,0
2022-11-06T01:04:02.563Z,0.14
2022-11-06T01:06:03.549Z,0
2022-11-06T01:08:05.309Z,0
2022-11-06T01:10:06.700Z,0
2022-11-06T01:14:09.119Z,0
2022-11-06T01:16:10.527Z,0
2022-11-06T01:18:11.855Z,0
2022-11-06T01:20:13.579Z,0
2022-11-06T01:24:16.381Z,0
2022-11-06T01:26:28.954Z,0
2022-11-06T01:28:19.254Z,0
2022-11-06T01:30:20.269Z,0
2022-11-06T01:32:22.096Z,0
2022-11-06T01:34:23.408Z,0
2022-11-06T01:36:25.254Z,0
2022-11-06T01:38:26.975Z,0
2022-11-06T01:40:28.745Z,0
2022-11-06T01:42:30.151Z,0
2022-11-06T01:44:31.863Z,0
2022-11-06T01:46:33.790Z,0
2022-11-06T01:48:35.144Z,0
2022-11-06T01:50:36.513Z,0
2022-11-06T01:52:38.412Z,0
2022-11-06T01:56:41.300Z,0.982
2022-11-06T01:58:43.218Z,1.544
2022-11-06T02:00:44.709Z,0.14
2022-11-06T02:02:46.608Z,0
2022-11-06T02:04:47.589Z,0
2022-11-06T02:06:48.981Z,0
2022-11-06T02:08:50.211Z,0
2022-11-06T02:10:51.927Z,0
2022-11-06T02:12:53.553Z,0
2022-11-06T02:14:55.298Z,0
2022-11-06T02:16:56.908Z,0
2022-11-06T02:18:58.265Z,0
2022-11-06T02:20:59.291Z,0
2022-11-06T02:23:00.412Z,0
2022-11-06T02:25:01.862Z,0
2022-11-06T02:29:04.913Z,0
2022-11-06T02:31:06.154Z,0
2022-11-06T02:33:07.841Z,1.825
2022-11-06T02:35:09.041Z,0.14
2022-11-06T02:39:11.835Z,0
2022-11-06T02:41:12.897Z,1.544
2022-11-06T02:43:14.721Z,1.404
2022-11-06T02:45:15.751Z,0
2022-11-06T02:47:17.155Z,0
2022-11-06T02:51:20.283Z,0.14
2022-11-06T02:53:21.710Z,0
2022-11-06T02:55:23.676Z,0
2022-11-06T02:57:24.804Z,0.14
2022-11-06T02:59:26.032Z,0.421
2022-11-06T03:01:27.343Z,0
2022-11-06T03:03:29.081Z,0
2022-11-06T03:05:30.142Z,0
2022-11-06T03:07:31.565Z,0
2022-11-06T03:11:34.588Z,0
2022-11-06T03:13:36.474Z,0
2022-11-06T03:15:37.632Z,0
2022-11-06T03:17:38.916Z,0
2022-11-06T03:21:41.463Z,0
2022-11-06T03:23:43.179Z,0
2022-11-06T03:25:44.901Z,0
2022-11-06T03:27:47.005Z,0
2022-11-06T03:29:48.931Z,0
2022-11-06T03:31:50.465Z,0
2022-11-06T03:33:52.466Z,0
2022-11-06T03:35:53.952Z,0
2022-11-06T03:37:55.433Z,0
2022-11-06T03:39:57.389Z,0
2022-11-06T03:41:58.602Z,0
2022-11-06T03:43:59.897Z,0
2022-11-06T03:46:01.109Z,0
2022-11-06T03:48:02.727Z,0
2022-11-06T03:50:04.761Z,0
2022-11-06T03:54:08.328Z,0
2022-11-06T03:56:09.598Z,0
2022-11-06T03:58:10.861Z,0
2022-11-06T04:00:11.679Z,1.684
2022-11-06T04:02:13.612Z,0
2022-11-06T04:04:14.927Z,0
2022-11-06T04:06:15.975Z,0.14
2022-11-06T04:08:17.935Z,0
2022-11-06T04:10:19.222Z,0
2022-11-06T04:12:20.405Z,0
2022-11-06T04:14:21.888Z,0
2022-11-06T04:16:23.827Z,0
2022-11-06T04:18:25.058Z,0
2022-11-06T04:20:26.371Z,0
2022-11-06T04:22:27.892Z,0
2022-11-06T04:24:29.272Z,0
2022-11-06T04:26:30.454Z,0
2022-11-06T04:28:32.443Z,0
2022-11-06T04:30:33.725Z,0
2022-11-06T04:32:35.431Z,0
2022-11-06T04:34:37.258Z,0
2022-11-06T04:36:38.994Z,0
2022-11-06T04:38:40.347Z,0
2022-11-06T04:40:41.507Z,0
2022-11-06T04:42:42.597Z,0
2022-11-06T04:44:44.354Z,0
2022-11-06T04:46:46.165Z,0
2022-11-06T04:48:48.054Z,0
2022-11-06T04:50:49.588Z,0
2022-11-06T04:52:51.364Z,0
2022-11-06T04:54:52.645Z,1.123
2022-11-06T04:56:54.634Z,2.527
2022-11-06T04:58:56.337Z,0.28
2022-11-06T05:00:58.057Z,0
2022-11-06T05:02:59.876Z,0
2022-11-06T05:03:43.781Z,0
2022-11-06T05:05:45.818Z,0
2022-11-06T05:07:47.754Z,0
2022-11-06T05:09:49.405Z,0
2022-11-06T05:11:50.546Z,0
2022-11-06T05:13:52.181Z,0
2022-11-06T05:15:54.169Z,0
2022-11-06T05:19:57.428Z,0
2022-11-06T05:21:58.588Z,0
2022-11-06T05:24:00.219Z,0
2022-11-06T05:26:01.667Z,0
2022-11-06T05:30:05.350Z,0
2022-11-06T05:32:06.956Z,0
2022-11-06T05:34:08.093Z,0
2022-11-06T05:36:09.216Z,0
2022-11-06T05:40:12.251Z,0
2022-11-06T05:42:14.253Z,0
2022-11-06T05:44:16.233Z,0
2022-11-06T05:46:42.592Z,0
2022-11-06T05:48:19.125Z,0
2022-11-06T05:50:20.947Z,0
2022-11-06T05:52:22.229Z,0
2022-11-06T05:54:24.216Z,0
2022-11-06T05:56:26.093Z,0
2022-11-06T05:58:27.583Z,0
2022-11-06T06:00:29.490Z,0.842
2022-11-06T06:02:31.515Z,0
2022-11-06T06:04:33.152Z,0.14
2022-11-06T06:06:34.922Z,0
2022-11-06T06:08:36.329Z,0
2022-11-06T06:12:38.850Z,0
2022-11-06T06:14:40.095Z,0
2022-11-06T06:16:42.116Z,0
2022-11-06T06:18:43.296Z,0
2022-11-06T06:22:46.450Z,0
2022-11-06T06:24:48.473Z,0
2022-11-06T06:26:49.701Z,0
2022-11-06T06:28:50.944Z,0
2022-11-06T06:30:55.911Z,0
2022-11-06T06:32:53.975Z,0
2022-11-06T06:34:55.420Z,0
2022-11-06T06:36:57.387Z,0
2022-11-06T06:38:59.135Z,0
2022-11-06T06:41:00.977Z,0
2022-11-06T06:43:02.770Z,0
2022-11-06T06:45:04.236Z,0.702
2022-11-06T06:47:05.947Z,0
2022-11-06T06:49:07.748Z,0
2022-11-06T06:51:09.033Z,0.28
2022-11-06T06:55:12.323Z,0
2022-11-06T06:57:13.680Z,0
2022-11-06T06:59:15.515Z,0
2022-11-06T07:01:16.923Z,0
2022-11-06T07:05:19.957Z,0
2022-11-06T07:07:21.023Z,0
2022-11-06T07:09:22.190Z,0
2022-11-06T07:11:23.680Z,0
2022-11-06T07:13:24.764Z,0
2022-11-06T07:17:27.514Z,0
2022-11-06T07:19:28.687Z,0
2022-11-06T07:21:29.730Z,0
2022-11-06T07:23:30.910Z,0
2022-11-06T07:25:32.123Z,0
2022-11-06T07:27:33.937Z,0
2022-11-06T07:29:35.306Z,0.421
2022-11-06T07:31:36.984Z,0
2022-11-06T07:33:38.999Z,0
2022-11-06T07:37:42.905Z,0
2022-11-06T07:39:44.049Z,0
2022-11-06T07:41:45.504Z,0
2022-11-06T07:43:46.709Z,0
2022-11-06T07:47:59.266Z,0
2022-11-06T07:50:00.143Z,0
2022-11-06T07:51:52.898Z,0
2022-11-06T07:53:54.688Z,0
2022-11-06T07:55:55.822Z,0
2022-11-06T07:57:57.074Z,0
2022-11-06T07:59:58.811Z,0
2022-11-06T08:02:00.217Z,0
2022-11-06T08:04:01.328Z,0
2022-11-06T08:06:02.594Z,0.421
2022-11-06T08:08:05.300Z,0.28
2022-11-06T08:10:07.197Z,0
2022-11-06T08:12:09.413Z,0
2022-11-06T08:14:10.746Z,0
2022-11-06T08:16:11.768Z,1.404
2022-11-06T08:18:14.000Z,0
2022-11-06T08:20:14.850Z,0
2022-11-06T08:22:16.176Z,0
2022-11-06T08:24:21.666Z,0
2022-11-06T08:26:18.682Z,0
2022-11-06T08:28:20.024Z,0
2022-11-06T08:30:22.113Z,0
2022-11-06T08:32:23.166Z,0.561
2022-11-06T08:34:24.586Z,0
2022-11-06T08:36:25.528Z,0
2022-11-06T08:38:26.469Z,0
2022-11-06T08:40:30.805Z,1.544
2022-11-06T08:42:29.542Z,0
2022-11-06T08:44:31.364Z,0
2022-11-06T08:46:32.342Z,0
2022-11-06T08:48:34.179Z,0
2022-11-06T08:50:35.595Z,0
2022-11-06T08:52:37.531Z,0
2022-11-06T08:54:38.464Z,2.667
2022-11-06T08:56:39.919Z,1.684
2022-11-06T08:58:41.645Z,0.561
2022-11-06T09:00:42.823Z,1.123
2022-11-06T09:02:44.307Z,0.28
2022-11-06T09:04:45.210Z,3.369
2022-11-06T09:06:46.858Z,0.28
2022-11-06T09:08:48.605Z,3.65
2022-11-06T09:10:52.196Z,0.14
2022-11-06T09:12:50.967Z,0.28
2022-11-06T09:14:51.973Z,1.684
2022-11-06T09:16:53.072Z,0
2022-11-06T09:18:54.718Z,1.965
2022-11-06T09:22:57.195Z,0
2022-11-06T09:25:03.496Z,3.931
2022-11-06T09:29:01.279Z,0
2022-11-06T09:31:02.447Z,1.825
2022-11-06T09:33:05.348Z,0.561
2022-11-06T09:35:05.426Z,0.702
2022-11-06T09:37:06.445Z,0.982
2022-11-06T09:39:08.191Z,1.544
2022-11-06T09:41:09.284Z,0.421
2022-11-06T09:43:10.556Z,0.14
2022-11-06T09:45:12.304Z,1.684
2022-11-06T09:47:14.115Z,0.14
2022-11-06T09:49:15.510Z,1.263
2022-11-06T09:51:17.171Z,3.088
2022-11-06T09:53:19.142Z,2.386
2022-11-06T09:55:20.213Z,0.982
2022-11-06T09:57:21.420Z,0
2022-11-06T10:01:27.201Z,0.702
2022-11-06T10:03:25.476Z,1.544
2022-11-06T10:05:27.211Z,0.842
2022-11-06T10:07:28.748Z,0
2022-11-06T10:09:30.227Z,0
2022-11-06T10:11:31.884Z,0
2022-11-06T10:13:33.150Z,0
2022-11-06T10:15:34.565Z,2.948
2022-11-06T10:17:36.294Z,0.842
2022-11-06T10:19:37.196Z,0.842
2022-11-06T10:21:38.886Z,0.982
2022-11-06T10:23:39.817Z,0
2022-11-06T10:25:40.961Z,3.088
2022-11-06T10:27:42.676Z,0.702
2022-11-06T10:29:44.315Z,2.667
2022-11-06T10:31:45.864Z,0.561
2022-11-06T10:33:46.943Z,0.14
2022-11-06T10:35:48.747Z,0.842
2022-11-06T10:37:49.803Z,0.561
2022-11-06T10:39:50.797Z,2.808
2022-11-06T10:41:52.482Z,1.123
2022-11-06T10:43:53.676Z,0.842
2022-11-06T10:45:55.170Z,3.65
2022-11-06T10:47:56.735Z,3.369
2022-11-06T10:49:57.885Z,4.633
2022-11-06T10:51:59.370Z,2.808
2022-11-06T10:54:01.080Z,3.931
2022-11-06T10:56:05.503Z,0.842
2022-11-06T10:58:04.530Z,6.318
2022-11-06T11:00:05.730Z,3.229
2022-11-06T11:02:07.266Z,1.965
2022-11-06T11:04:08.709Z,2.246
2022-11-06T11:06:09.702Z,4.914
2022-11-06T11:08:11.124Z,5.756
2022-11-06T11:10:12.146Z,3.51
2022-11-06T11:12:13.843Z,5.335
2022-11-06T11:14:15.569Z,2.667
2022-11-06T11:16:17.286Z,2.667
2022-11-06T11:18:19.016Z,3.229
2022-11-06T11:20:20.237Z,5.616
2022-11-06T11:22:22.042Z,6.177
2022-11-06T11:24:23.809Z,6.739
2022-11-06T11:26:25.458Z,5.475
2022-11-06T11:28:27.077Z,4.492
2022-11-06T11:30:28.654Z,4.492
2022-11-06T11:32:30.460Z,4.071
2022-11-06T11:34:31.544Z,4.914
2022-11-06T11:36:32.704Z,12.355
2022-11-06T11:38:34.283Z,6.739
2022-11-06T11:42:36.765Z,4.071
2022-11-06T11:44:38.636Z,5.616
2022-11-06T11:46:40.264Z,10.249
2022-11-06T11:48:42.002Z,4.352
2022-11-06T11:49:25.802Z,5.616
2022-11-06T11:51:26.807Z,6.879
2022-11-06T11:53:28.656Z,4.773
2022-11-06T11:55:30.026Z,7.722
2022-11-06T11:57:31.724Z,3.931
2022-11-06T11:59:33.428Z,8.704
2022-11-06T12:01:34.905Z,8.002
2022-11-06T12:03:35.783Z,3.931
2022-11-06T12:05:36.743Z,8.424
2022-11-06T12:07:40.862Z,3.088
2022-11-06T12:09:38.959Z,8.283
2022-11-06T12:11:39.934Z,5.616
2022-11-06T12:13:41.094Z,4.492
2022-11-06T12:15:42.081Z,0.28
2022-11-06T12:19:45.055Z,4.773
2022-11-06T12:21:46.390Z,4.352
2022-11-06T12:23:47.573Z,8.564
2022-11-06T12:25:49.194Z,6.458
2022-11-06T12:29:51.791Z,7.02
2022-11-06T12:31:52.792Z,6.598
2022-11-06T12:34:06.439Z,6.177
2022-11-06T12:35:56.209Z,6.177
2022-11-06T12:37:57.475Z,8.845
2022-11-06T12:39:58.888Z,7.16
2022-11-06T12:42:00.716Z,7.581
2022-11-06T12:44:02.436Z,6.879
2022-11-06T12:46:04.015Z,7.16
2022-11-06T12:48:05.501Z,8.704
2022-11-06T12:50:06.939Z,7.441
2022-11-06T12:52:08.792Z,6.739
2022-11-06T12:54:10.516Z,5.616
2022-11-06T12:56:11.818Z,7.16
2022-11-06T12:58:13.867Z,6.037
2022-11-06T13:02:17.443Z,4.633
2022-11-06T13:04:18.312Z,8.283
2022-11-06T13:06:19.618Z,2.527
2022-11-06T13:08:21.246Z,6.739
2022-11-06T13:12:23.675Z,8.424
2022-11-06T13:14:24.742Z,6.177
2022-11-06T13:16:26.297Z,4.212
2022-11-06T13:18:27.557Z,8.283
2022-11-06T13:20:29.083Z,3.931
2022-11-06T13:22:30.941Z,3.088
2022-11-06T13:24:32.782Z,8.985
2022-11-06T13:26:34.549Z,5.756
2022-11-06T13:28:35.972Z,6.458
2022-11-06T13:30:37.485Z,5.194
2022-11-06T13:32:39.250Z,5.475
2022-11-06T13:34:40.697Z,6.739
2022-11-06T13:36:42.594Z,7.02
2022-11-06T13:38:44.179Z,3.51
2022-11-06T13:40:45.188Z,3.931
2022-11-06T13:44:47.795Z,5.896
2022-11-06T13:46:49.374Z,3.931
2022-11-06T13:48:51.280Z,5.335
2022-11-06T13:50:52.903Z,3.229
2022-11-06T13:54:55.712Z,8.002
2022-11-06T13:56:57.048Z,3.931
2022-11-06T13:58:58.308Z,2.246
2022-11-06T14:01:00.051Z,1.123
2022-11-06T14:03:01.191Z,3.369
2022-11-06T14:05:02.691Z,3.088
2022-11-06T14:07:04.005Z,8.143
2022-11-06T14:09:05.608Z,5.756
2022-11-06T14:11:06.749Z,3.088
2022-11-06T14:13:07.773Z,2.948
2022-11-06T14:15:09.153Z,6.739
2022-11-06T14:17:10.461Z,9.547
2022-11-06T14:19:12.291Z,8.704
2022-11-06T14:21:13.479Z,7.862
2022-11-06T14:23:14.951Z,9.828
2022-11-06T14:25:16.741Z,3.229
2022-11-06T14:27:18.056Z,11.934
2022-11-06T14:29:19.932Z,7.862
2022-11-06T14:31:25.007Z,4.914
2022-11-06T14:33:22.807Z,11.512
2022-11-06T14:35:24.736Z,6.879
2022-11-06T14:37:30.674Z,6.879
2022-11-06T14:39:28.284Z,4.212
2022-11-06T14:41:29.418Z,6.318
2022-11-06T14:43:30.646Z,6.177
2022-11-06T14:45:31.992Z,5.054
2022-11-06T14:47:33.025Z,5.475
2022-11-06T14:49:34.079Z,5.054
2022-11-06T14:51:35.787Z,5.335
2022-11-06T14:53:37.374Z,4.492
2022-11-06T14:55:39.046Z,5.475
2022-11-06T14:57:40.775Z,9.968
2022-11-06T14:59:42.363Z,7.581
2022-11-06T15:01:43.861Z,6.739
2022-11-06T15:03:45.291Z,9.687
2022-11-06T15:05:51.153Z,5.335
2022-11-06T15:08:04.781Z,11.512
2022-11-06T15:09:49.240Z,7.16
2022-11-06T15:11:50.664Z,4.492
2022-11-06T15:13:51.672Z,2.386
2022-11-06T15:15:52.747Z,6.037
2022-11-06T15:17:53.786Z,4.492
2022-11-06T15:19:55.503Z,7.02
2022-11-06T15:21:57.381Z,8.564
2022-11-06T15:25:59.424Z,7.3
2022-11-06T15:28:01.308Z,4.773
2022-11-06T15:30:03.214Z,4.773
2022-11-06T15:32:04.283Z,3.088
2022-11-06T15:36:07.601Z,0.702
2022-11-06T15:38:09.285Z,2.386
2022-11-06T15:40:10.678Z,1.965
2022-11-06T15:42:12.236Z,1.123
2022-11-06T15:44:13.598Z,3.088
2022-11-06T15:46:15.028Z,5.194
2022-11-06T15:48:16.354Z,1.825
2022-11-06T15:50:17.505Z,3.79
2022-11-06T15:52:18.968Z,4.492
2022-11-06T15:54:20.556Z,2.527
2022-11-06T15:56:21.588Z,2.246
2022-11-06T15:58:25.705Z,6.037
2022-11-06T16:00:24.691Z,0.982
2022-11-06T16:02:26.279Z,1.965
2022-11-06T16:04:28.029Z,4.212
2022-11-06T16:08:31.120Z,5.335
2022-11-06T16:10:32.281Z,4.914
2022-11-06T16:12:34.131Z,4.773
2022-11-06T16:14:35.148Z,4.071
2022-11-06T16:18:38.610Z,2.948
2022-11-06T16:20:39.919Z,0.561
2022-11-06T16:22:41.321Z,0.28
2022-11-06T16:24:42.594Z,2.948
2022-11-06T16:26:44.537Z,1.825
2022-11-06T16:28:46.297Z,2.386
2022-11-06T16:30:47.291Z,1.123
2022-11-06T16:32:49.152Z,3.229
2022-11-06T16:34:50.867Z,1.684
2022-11-06T16:36:52.652Z,3.65
2022-11-06T16:40:55.700Z,4.212
2022-11-06T16:42:57.343Z,1.965
2022-11-06T16:44:58.782Z,3.79
2022-11-06T16:47:00.238Z,1.123
2022-11-06T16:51:03.065Z,1.544
2022-11-06T16:53:04.529Z,2.527
2022-11-06T16:55:05.583Z,4.633
2022-11-06T16:57:06.701Z,1.965
2022-11-06T17:01:11.845Z,3.229
2022-11-06T17:03:11.585Z,2.808
2022-11-06T17:05:13.246Z,3.65
2022-11-06T17:07:14.531Z,0.14
2022-11-06T17:09:16.220Z,4.492
2022-11-06T17:11:17.331Z,2.106
2022-11-06T17:13:18.784Z,2.948
2022-11-06T17:15:20.580Z,2.246
2022-11-06T17:17:21.656Z,3.229
2022-11-06T17:19:22.943Z,2.808
2022-11-06T17:21:24.607Z,1.825
2022-11-06T17:23:26.405Z,0.702
2022-11-06T17:25:27.431Z,0
2022-11-06T17:27:28.548Z,3.088
2022-11-06T17:29:29.750Z,2.246
2022-11-06T17:31:30.916Z,6.037
2022-11-06T17:33:32.593Z,6.458
2022-11-06T17:35:34.318Z,3.51
2022-11-06T17:37:35.919Z,4.352
2022-11-06T17:39:37.646Z,4.071
2022-11-06T17:41:39.493Z,4.633
2022-11-06T17:43:40.612Z,4.773
2022-11-06T17:45:42.120Z,5.756
2022-11-06T17:47:43.379Z,8.845
2022-11-06T17:49:45.049Z,5.756
2022-11-06T17:51:46.407Z,2.106
2022-11-06T17:53:48.359Z,1.825
2022-11-06T17:55:50.095Z,5.475
2022-11-06T17:57:51.177Z,3.65
2022-11-06T17:59:53.073Z,4.352
2022-11-06T18:01:54.862Z,1.544
2022-11-06T18:03:55.838Z,5.194
2022-11-06T18:05:57.244Z,5.756
2022-11-06T18:07:58.783Z,4.633
2022-11-06T18:10:00.182Z,5.896
2022-11-06T18:12:01.440Z,3.79
2022-11-06T18:14:02.418Z,3.65
2022-11-06T18:16:03.754Z,2.808
2022-11-06T18:18:04.789Z,2.948
2022-11-06T18:20:05.916Z,3.369
2022-11-06T18:22:07.638Z,4.071
2022-11-06T18:24:09.301Z,3.65
2022-11-06T18:26:11.003Z,0.842
2022-11-06T18:28:12.315Z,0.421
2022-11-06T18:32:14.923Z,1.684
2022-11-06T18:34:20.081Z,2.667
2022-11-06T18:34:59.954Z,5.335
2022-11-06T18:37:01.292Z,2.948
2022-11-06T18:39:02.654Z,5.896
2022-11-06T18:41:04.560Z,0.421
2022-11-06T18:43:06.139Z,3.65
2022-11-06T18:45:15.561Z,2.948
2022-11-06T18:49:10.225Z,1.684
2022-11-06T18:51:11.569Z,1.684
2022-11-06T18:53:13.384Z,2.106
2022-11-06T18:55:15.135Z,2.246
2022-11-06T18:57:16.977Z,7.3
2022-11-06T18:59:17.931Z,2.246
2022-11-06T19:01:19.598Z,3.79
2022-11-06T19:03:20.530Z,1.965
2022-11-06T19:05:22.335Z,0
2022-11-06T19:09:25.184Z,3.79
2022-11-06T19:11:26.445Z,3.369
2022-11-06T19:13:27.863Z,3.79
2022-11-06T19:15:29.260Z,1.123
2022-11-06T19:19:31.994Z,0
2022-11-06T19:21:33.311Z,0.982
2022-11-06T19:25:35.729Z,1.544
2022-11-06T19:27:37.372Z,2.527
2022-11-06T19:29:38.742Z,0.561
2022-11-06T19:31:40.301Z,0.14
2022-11-06T19:33:41.553Z,1.965
2022-11-06T19:35:42.717Z,0.842
2022-11-06T19:37:44.435Z,0
2022-11-06T19:39:46.396Z,0
2022-11-06T19:41:47.672Z,0
2022-11-06T19:43:48.799Z,0.28
2022-11-06T19:45:50.663Z,0
2022-11-06T19:47:52.088Z,0
2022-11-06T19:49:53.893Z,2.808
2022-11-06T19:51:55.299Z,0.702
2022-11-06T19:53:56.507Z,0.14
2022-11-06T19:55:57.542Z,0
2022-11-06T19:57:59.248Z,0.14
2022-11-06T20:00:00.645Z,1.544
2022-11-06T20:02:02.067Z,1.965
2022-11-06T20:04:03.684Z,3.229
2022-11-06T20:06:07.539Z,5.616
2022-11-06T20:08:06.528Z,2.527
2022-11-06T20:10:07.708Z,2.527
2022-11-06T20:12:09.360Z,3.65
2022-11-06T20:14:10.624Z,3.088
2022-11-06T20:16:11.746Z,2.667
2022-11-06T20:18:13.495Z,1.825
2022-11-06T20:20:15.021Z,0.702
2022-11-06T20:22:16.187Z,4.212
2022-11-06T20:24:18.007Z,2.948
2022-11-06T20:26:19.452Z,0.702
2022-11-06T20:28:20.656Z,0.14
2022-11-06T20:30:22.215Z,0.421
2022-11-06T20:32:23.627Z,2.246
2022-11-06T20:34:24.711Z,1.404
2022-11-06T20:36:26.230Z,4.071
2022-11-06T20:38:27.550Z,1.825
2022-11-06T20:40:31.909Z,3.931
2022-11-06T20:42:29.840Z,3.65
2022-11-06T20:44:31.575Z,6.318
2022-11-06T20:46:32.918Z,6.037
2022-11-06T20:48:34.207Z,1.263
2022-11-06T20:50:35.392Z,0.421
2022-11-06T20:52:37.010Z,2.527
2022-11-06T20:54:41.223Z,2.246
2022-11-06T20:56:40.042Z,0
2022-11-06T20:58:41.638Z,0
2022-11-06T21:00:43.199Z,2.808
2022-11-06T21:02:44.942Z,0.702
2022-11-06T21:06:47.671Z,0
2022-11-06T21:08:48.725Z,1.123
2022-11-06T21:10:49.875Z,0
2022-11-06T21:12:51.169Z,0.421
2022-11-06T21:14:52.184Z,0.14
2022-11-06T21:16:53.541Z,0.28
2022-11-06T21:18:54.892Z,0
2022-11-06T21:20:56.230Z,1.263
2022-11-06T21:22:57.643Z,0
2022-11-06T21:24:58.851Z,0.421
2022-11-06T21:26:59.788Z,0
2022-11-06T21:29:01.013Z,0.842
2022-11-06T21:31:02.808Z,1.544
2022-11-06T21:33:04.205Z,0.28
2022-11-06T21:35:06.094Z,0.28
2022-11-06T21:39:09.096Z,0
2022-11-06T21:41:10.400Z,0.561
2022-11-06T21:43:12.130Z,0.842
2022-11-06T21:45:14.889Z,0.561
2022-11-06T21:49:15.914Z,1.544
2022-11-06T21:51:17.733Z,3.088
2022-11-06T21:53:19.295Z,1.263
2022-11-06T21:55:21.264Z,2.106
2022-11-06T21:57:22.600Z,0.421
2022-11-06T21:59:23.865Z,0
2022-11-06T22:01:25.388Z,0.28
2022-11-06T22:03:26.544Z,0.14
2022-11-06T22:05:27.942Z,0
2022-11-06T22:07:29.078Z,0
2022-11-06T22:09:30.435Z,0
2022-11-06T22:11:32.087Z,0.982
2022-11-06T22:13:33.663Z,1.965
2022-11-06T22:15:34.715Z,0
2022-11-06T22:17:36.376Z,0
2022-11-06T22:19:38.238Z,0.702
2022-11-06T22:21:39.526Z,0
2022-11-06T22:23:41.270Z,0
2022-11-06T22:25:42.952Z,0
2022-11-06T22:27:43.996Z,0.14
2022-11-06T22:29:45.811Z,0
2022-11-06T22:31:47.840Z,0.561
2022-11-06T22:33:53.368Z,0.14
2022-11-06T22:35:50.219Z,0.982
2022-11-06T22:37:51.378Z,0
2022-11-06T22:39:52.668Z,3.369
2022-11-06T22:41:53.696Z,6.739
2022-11-06T22:43:54.798Z,1.825
2022-11-06T22:45:56.693Z,0.28
2022-11-06T22:47:58.142Z,0
2022-11-06T22:49:59.350Z,0
2022-11-06T22:52:00.671Z,0
2022-11-06T22:54:01.898Z,0.14
2022-11-06T22:56:03.404Z,0
2022-11-06T22:58:05.033Z,0
2022-11-06T23:00:06.110Z,0
2022-11-06T23:02:07.766Z,0.842
2022-11-06T23:04:09.281Z,0.421
2022-11-06T23:06:10.973Z,0
2022-11-06T23:08:12.253Z,0.14
2022-11-06T23:10:13.695Z,0
2022-11-06T23:12:15.578Z,0
2022-11-06T23:14:17.038Z,1.263
2022-11-06T23:16:18.661Z,0
2022-11-06T23:18:20.471Z,1.965
2022-11-06T23:20:21.767Z,3.79
2022-11-06T23:22:22.937Z,9.968
2022-11-06T23:24:24.588Z,4.352
2022-11-06T23:26:26.164Z,3.79
2022-11-06T23:30:28.648Z,5.475
2022-11-06T23:32:30.359Z,5.475
2022-11-06T23:34:31.527Z,2.386
2022-11-06T23:36:33.472Z,2.246
2022-11-06T23:38:34.762Z,7.581
2022-11-06T23:40:36.592Z,4.071
2022-11-06T23:42:38.235Z,7.16
2022-11-06T23:44:40.039Z,7.02
2022-11-06T23:46:41.743Z,2.106
2022-11-06T23:48:43.635Z,2.527
2022-11-06T23:50:44.975Z,3.65
2022-11-06T23:52:45.980Z,5.054
2022-11-06T23:54:47.626Z,5.475
2022-11-06T23:56:49.187Z,4.492
2022-11-06T23:58:50.181Z,2.667
